Fairbank, Illinois
Current Conditions -  °F | °C
As of 3:52 AM on Tuesday 27 Jan 2015 (Local Time) from KMLI Reporting Station
Overcast Overcast  
Wind Chill: 29°   Ceiling: 3600
Heat Index: 35°   Visibility: 10mi
Dew Point: 29°   Wind: 7mph
Humidity: 78%   Direction: 360°N
Pressure: 29.99"   Gusts: NA
Location:  41.4828°N, 90.1801°W
Report Text: KMLI 270952Z AUTO 36006KT 10SM OVC036 02/M02 A2999 RMK AO2 SLP162 T00171017
Loading
Personal Weather Stations






























Interactive Weather Map New forecast layout! Learn more

10-Day Weather Forecast

Advertisements
Track Severe Weather on mobile